This is the latest recevied weather packets stored in our database for station/object EA1FWM-13. If no packets are shown the sender has not sent any weather packets the latest 10 day(s).
| Time | Temp. | Humidity | Pressure | Rain* | Wind** | Luminosity | Snow |
|---|---|---|---|---|---|---|---|
| 1777464441 | 15.56° C | 85% | 1009.7 hPa | - | - | - | - |
| 1777463540 | 15.56° C | 82% | 1009.7 hPa | - | - | - | - |
| 1777462639 | 16.11° C | 82% | 1009.8 hPa | - | - | - | - |
| 1777461739 | 16.67° C | 79% | 1009.8 hPa | - | - | - | - |
| 1777460838 | 15.56° C | 83% | 1009.9 hPa | - | - | - | - |
| 1777459937 | 16.11° C | 81% | 1010 hPa | - | - | - | - |
| 1777459036 | 15° C | 86% | 1009.9 hPa | - | - | - | - |
| 1777458135 | 13.89° C | 87% | 1010 hPa | - | - | - | - |
| 1777457234 | 13.89° C | 84% | 1009.9 hPa | - | - | - | - |
| 1777456333 | 13.89° C | 81% | 1009.9 hPa | - | - | - | - |
| 1777455432 | 14.44° C | 79% | 1009.9 hPa | - | - | - | - |
| 1777454531 | 14.44° C | 79% | 1009.9 hPa | - | - | - | - |
| 1777453630 | 14.44° C | 80% | 1009.9 hPa | - | - | - | - |
| 1777452729 | 13.89° C | 81% | 1009.9 hPa | - | - | - | - |
| 1777451828 | 13.33° C | 82% | 1009.9 hPa | - | - | - | - |
| 1777450928 | 13.33° C | 83% | 1010 hPa | - | - | - | - |
| 1777450027 | 13.89° C | 84% | 1009.9 hPa | - | - | - | - |
| 1777449126 | 13.33° C | 84% | 1009.9 hPa | - | - | - | - |
| 1777448225 | 13.33° C | 83% | 1009.8 hPa | - | - | - | - |
| 1777447324 | 13.89° C | 83% | 1009.9 hPa | - | - | - | - |
| 1777446423 | 13.89° C | 83% | 1009.9 hPa | - | - | - | - |
| 1777445522 | 13.89° C | 83% | 1009.8 hPa | - | - | - | - |
| 1777444622 | 13.33° C | 83% | 1009.6 hPa | - | - | - | - |
| 1777443720 | 12.78° C | 85% | 1009.4 hPa | - | - | - | - |
| 1777442819 | 12.78° C | 85% | 1009.2 hPa | - | - | - | - |
* Rain since midnight (hover to see other rain measurements)
** Current wind speed in m/s (hover to see current wind gust speed)